Hlavní strana
METAR-TAF:

METAR-TAF

Letiště :

Ambato, Ekvádor

zeměpisná šířka: 01-12-43S, zeměpisná délka: 078-34-28W, výška: 2591 m

Aktuální stav počasí

Zpráva byla vytvořena před 15 minutami, v 13:00 UTC
Bezvětří
Teplota 13°C
Vlhkost vzduchu 88%
Tlak 1032 hPa
Viditelnost: 2000 m
Skoro jasno ve výšce 1000 ft
Zataženo ve výšce 1600 ft
chuchvalce mlhy

METAR: SEAM 261300Z 00000KT 9999 2000N BCFG FEW010 OVC016 13/11 Q1032

Čas: 08:15 (13:15 UTC)


TAF: chybějící

Stav a předpovědi počasí z více než 4 000 letišť (zprávy METAR a TAF).

Červené a žluté tečky na mapě představují dostupné meteorologické stanice.

Když kurzor umístíte na tečku, zobrazí se název stanice.

Pak kliknutím zobrazíte stav a předpověď počasí.

Chcete-li změnit mapu, kliknutím na zelené tlačítko se znaménkem +mapu přiblížíte, kliknutím na zelené tlačítko se znaménkem – mapu oddálíte a kliknutím na zelené šipky přejdete na sousední mapy.


METAR-TAF: